Time;durP1;ratioP1;P1;durP2;ratioP2;P2;SDS_P1;SDS_P2;PMS_P1;PMS_P2;Temp;Humidity;BMP_temperature;BMP_pressure;BME280_temperature;BME280_humidity;BME280_pressure;Samples;Min_cycle;Max_cycle;Signal;HPM_P1;HPM_P2
2022/03/07 00:01:28;;;;;;;11.65;9.48;;;;;;;18.55;33.46;101306.63;5073504;28;20040;-76
2022/03/07 00:03:58;;;;;;;10.77;8.30;;;;;;;18.56;33.51;101312.84;5073497;28;20408;-76
2022/03/07 00:06:25;;;;;;;10.15;8.57;;;;;;;18.54;33.50;101316.50;5073084;28;20044;-76
2022/03/07 00:08:53;;;;;;;9.95;8.75;;;;;;;18.55;33.51;101314.66;5073139;28;20055;-76
2022/03/07 00:11:20;;;;;;;9.57;8.60;;;;;;;18.56;33.22;101316.38;5073152;28;20044;-76
2022/03/07 00:13:48;;;;;;;11.43;7.95;;;;;;;18.56;33.27;101319.06;5072041;28;20056;-76
2022/03/07 00:16:15;;;;;;;9.15;8.23;;;;;;;18.56;33.41;101324.44;5073366;28;20048;-76
2022/03/07 00:18:43;;;;;;;10.98;8.63;;;;;;;18.56;33.40;101321.75;5073399;28;20484;-76
2022/03/07 00:21:10;;;;;;;9.50;8.27;;;;;;;18.57;33.38;101325.28;5073395;28;20048;-76
2022/03/07 00:23:37;;;;;;;10.05;9.02;;;;;;;18.56;33.19;101329.81;5073266;28;20052;-76
2022/03/07 00:26:05;;;;;;;10.02;8.32;;;;;;;18.57;33.22;101334.19;5071881;28;20044;-76
2022/03/07 00:28:33;;;;;;;9.40;8.18;;;;;;;18.57;33.17;101331.50;5073665;28;20527;-76
2022/03/07 00:31:00;;;;;;;10.65;9.55;;;;;;;18.56;33.03;101332.47;5071934;28;20052;-76
2022/03/07 00:33:28;;;;;;;10.13;8.38;;;;;;;18.56;32.87;101329.81;5073257;28;20413;-76
2022/03/07 00:35:56;;;;;;;9.32;8.40;;;;;;;18.57;33.10;101334.19;5072104;28;20048;-76
2022/03/07 00:38:23;;;;;;;10.23;8.45;;;;;;;18.57;32.86;101331.50;5072815;28;20400;-76
2022/03/07 00:40:51;;;;;;;9.73;8.80;;;;;;;18.57;32.92;101339.53;5071573;28;20056;-76
2022/03/07 00:43:21;;;;;;;9.82;8.70;;;;;;;18.57;32.79;101342.22;5071993;28;20052;-76
2022/03/07 00:45:49;;;;;;;9.32;8.43;;;;;;;18.57;32.71;101342.22;5073190;28;20047;-76
2022/03/07 00:48:18;;;;;;;11.27;8.35;;;;;;;18.57;32.79;101347.59;5071719;28;20484;-76
2022/03/07 00:50:48;;;;;;;13.02;8.80;;;;;;;18.58;32.78;101340.41;5071514;28;20041;-76
2022/03/07 00:53:18;;;;;;;9.15;8.23;;;;;;;18.58;32.87;101337.72;5071511;28;20060;-76
2022/03/07 00:55:46;;;;;;;9.30;8.20;;;;;;;18.58;32.61;101337.72;5073337;28;20037;-76
2022/03/07 00:58:14;;;;;;;9.55;8.15;;;;;;;18.58;32.74;101338.56;5071826;28;20496;-76
2022/03/07 01:00:42;;;;;;;9.25;7.88;;;;;;;18.59;32.63;101342.09;5072898;28;20044;-77
2022/03/07 01:03:12;;;;;;;10.13;8.80;;;;;;;18.59;32.63;101344.78;5072666;28;20053;-76
2022/03/07 01:05:41;;;;;;;9.90;8.32;;;;;;;18.58;32.54;101332.34;5071484;28;20064;-76
2022/03/07 01:08:09;;;;;;;10.48;8.48;;;;;;;18.59;32.55;101328.69;5072877;28;20515;-76
2022/03/07 01:10:37;;;;;;;8.98;8.07;;;;;;;18.60;32.55;101333.97;5071591;28;20427;-76
2022/03/07 01:13:06;;;;;;;9.98;8.27;;;;;;;18.58;32.49;101327.84;5054969;28;20052;-76
2022/03/07 01:15:34;;;;;;;9.77;8.27;;;;;;;18.60;32.56;101327.75;5074134;28;20404;-76
2022/03/07 01:18:02;;;;;;;9.60;7.97;;;;;;;18.59;32.39;101324.19;5076267;28;20044;-76
2022/03/07 01:20:29;;;;;;;8.85;7.95;;;;;;;18.59;32.53;101318.81;5075102;28;20052;-76
2022/03/07 01:22:57;;;;;;;9.68;8.32;;;;;;;18.59;32.68;101320.66;5075270;28;20055;-76
2022/03/07 01:25:25;;;;;;;8.90;8.00;;;;;;;18.60;32.59;101322.38;5075877;28;20055;-76
2022/03/07 01:27:52;;;;;;;8.60;7.70;;;;;;;18.59;32.37;101316.13;5075032;28;20084;-76
2022/03/07 01:30:21;;;;;;;10.23;8.70;;;;;;;18.60;32.53;101315.19;5076730;28;20040;-76
2022/03/07 01:32:52;;;;;;;10.30;7.90;;;;;;;18.60;32.64;101303.63;5074955;28;20048;-76
2022/03/07 01:35:24;;;;;;;8.88;7.82;;;;;;;18.60;32.63;101309.81;5075222;28;20052;-76
2022/03/07 01:37:52;;;;;;;8.50;7.65;;;;;;;18.61;32.56;101310.69;5074902;28;20053;-76
2022/03/07 01:40:19;;;;;;;9.32;8.43;;;;;;;18.61;32.68;101305.31;5074468;28;20396;-76
2022/03/07 01:42:47;;;;;;;11.05;8.75;;;;;;;18.61;32.72;101305.31;5076405;28;20503;-76
2022/03/07 01:45:17;;;;;;;9.85;8.65;;;;;;;18.61;32.61;101303.50;5075534;28;20057;-76
2022/03/07 01:47:46;;;;;;;9.45;8.10;;;;;;;18.62;32.79;101305.19;5074604;28;20059;-76
2022/03/07 01:50:18;;;;;;;9.80;8.18;;;;;;;18.62;32.66;101307.03;5074950;28;20048;-76
2022/03/07 01:52:50;;;;;;;9.60;7.70;;;;;;;18.62;32.64;101301.66;5075019;28;20420;-76
2022/03/07 01:55:18;;;;;;;7.75;7.05;;;;;;;18.62;32.59;101298.97;5074371;28;20060;-76
2022/03/07 01:57:56;;;;;;;9.25;7.63;;;;;;;18.62;32.73;101299.81;5074949;28;20376;-76
2022/03/07 02:00:26;;;;;;;7.93;6.63;;;;;;;18.63;32.70;101296.16;5074421;28;20055;-76
2022/03/07 02:02:54;;;;;;;8.48;7.25;;;;;;;18.62;32.72;101294.47;5074434;28;20512;-76
2022/03/07 02:05:31;;;;;;;9.38;7.82;;;;;;;18.63;32.64;101298.84;5074480;28;20060;-76
2022/03/07 02:08:03;;;;;;;8.90;7.60;;;;;;;18.63;32.75;101289.94;5074412;28;20044;-76
2022/03/07 02:10:42;;;;;;;9.13;7.30;;;;;;;18.63;32.74;101289.94;5074483;28;20277;-76
2022/03/07 02:13:15;;;;;;;9.65;7.55;;;;;;;18.62;32.51;101289.09;5074390;28;20060;-76
2022/03/07 02:15:57;;;;;;;7.65;6.82;;;;;;;18.64;32.65;101289.00;5074585;28;20056;-76
2022/03/07 02:18:30;;;;;;;8.55;7.43;;;;;;;18.62;32.75;101283.72;5074289;28;20057;-76
2022/03/07 02:21:14;;;;;;;8.77;7.60;;;;;;;18.64;32.75;101283.63;5074092;28;20055;-76
2022/03/07 02:24:03;;;;;;;9.05;8.07;;;;;;;18.62;32.53;101285.56;5074139;28;20049;-76
2022/03/07 02:26:33;;;;;;;8.43;7.60;;;;;;;18.61;32.74;101284.72;5075365;28;20055;-76
2022/03/07 02:29:03;;;;;;;9.32;7.43;;;;;;;18.61;32.69;101284.72;5073912;28;20049;-76
2022/03/07 02:31:34;;;;;;;7.85;7.00;;;;;;;18.61;32.45;101287.41;5075412;28;20037;-76
2022/03/07 02:34:05;;;;;;;7.75;6.80;;;;;;;18.62;32.48;101290.94;5073951;28;20053;-76
2022/03/07 02:36:33;;;;;;;8.27;7.22;;;;;;;18.62;32.41;101286.41;5074895;28;20076;-76
2022/03/07 02:39:04;;;;;;;7.97;6.88;;;;;;;18.61;32.52;101287.41;5073167;28;20053;-76
2022/03/07 02:41:33;;;;;;;8.95;7.60;;;;;;;18.62;32.53;101291.78;5075573;28;20385;-76
2022/03/07 02:44:00;;;;;;;9.93;7.80;;;;;;;18.61;32.35;101290.06;5073396;28;20052;-76
2022/03/07 02:46:27;;;;;;;8.73;7.43;;;;;;;18.63;32.40;101290.81;5074591;28;20055;-76
2022/03/07 02:48:55;;;;;;;11.70;7.30;;;;;;;18.63;32.43;101292.63;5073780;28;20053;-76
2022/03/07 02:51:22;;;;;;;9.35;7.72;;;;;;;18.63;32.56;101290.81;5057001;28;20048;-76
2022/03/07 02:53:50;;;;;;;8.02;7.22;;;;;;;18.62;32.74;101291.78;5074434;28;20059;-76
2022/03/07 02:56:17;;;;;;;8.50;7.28;;;;;;;18.62;32.56;101290.94;5074482;28;20048;-76
2022/03/07 02:58:45;;;;;;;8.50;7.30;;;;;;;18.60;32.68;101291.06;5074447;28;20070;-76
2022/03/07 03:01:13;;;;;;;7.75;6.70;;;;;;;18.61;32.59;101286.53;5074405;28;20052;-76
2022/03/07 03:03:40;;;;;;;10.35;7.60;;;;;;;18.59;32.62;101289.31;5074816;28;20048;-76
2022/03/07 03:06:09;;;;;;;8.30;7.10;;;;;;;18.60;32.68;101298.25;5074280;28;20056;-76
2022/03/07 03:08:37;;;;;;;8.73;7.60;;;;;;;18.59;32.62;101294.69;5074245;28;20048;-76
2022/03/07 03:11:04;;;;;;;9.43;7.80;;;;;;;18.59;32.71;101301.88;5074989;28;20045;-76
2022/03/07 03:13:31;;;;;;;7.97;6.70;;;;;;;18.59;32.78;101301.88;5074663;28;20044;-76
2022/03/07 03:15:59;;;;;;;8.15;6.97;;;;;;;18.59;32.66;101291.16;5073985;28;20044;-76
2022/03/07 03:18:26;;;;;;;8.98;8.07;;;;;;;18.58;32.78;101301.03;5072916;28;20052;-76
2022/03/07 03:20:54;;;;;;;8.68;7.55;;;;;;;18.58;32.85;101295.66;5074411;28;20033;-76
2022/03/07 03:23:25;;;;;;;9.98;6.75;;;;;;;18.58;32.92;101298.34;5074158;28;20060;-76
2022/03/07 03:25:54;;;;;;;8.00;7.13;;;;;;;18.57;32.76;101299.31;5074070;28;20052;-76
2022/03/07 03:28:23;;;;;;;8.70;7.18;;;;;;;18.59;32.91;101300.03;5074267;28;20044;-76
2022/03/07 03:30:52;;;;;;;7.50;6.70;;;;;;;18.58;32.85;101300.19;5073936;28;20071;-76
2022/03/07 03:33:20;;;;;;;7.95;7.10;;;;;;;18.58;33.13;101300.19;5074266;28;20057;-76
2022/03/07 03:35:48;;;;;;;7.40;6.55;;;;;;;18.59;32.96;101301.88;5073309;28;20051;-76
2022/03/07 03:38:15;;;;;;;8.45;7.03;;;;;;;18.58;32.96;101298.34;5073479;28;20040;-76
2022/03/07 03:40:42;;;;;;;8.15;6.60;;;;;;;18.58;32.80;101298.34;5073579;28;20044;-76
2022/03/07 03:43:10;;;;;;;7.95;6.75;;;;;;;18.58;32.83;101290.31;5073600;28;20044;-76
2022/03/07 03:45:37;;;;;;;7.30;6.60;;;;;;;18.58;32.90;101294.81;5073755;28;20056;-76
2022/03/07 03:48:05;;;;;;;8.23;7.05;;;;;;;18.58;32.89;101295.66;5074254;28;20048;-76
2022/03/07 03:50:32;;;;;;;7.90;7.10;;;;;;;18.56;32.91;101303.00;5074171;28;20043;-76
2022/03/07 03:53:02;;;;;;;7.82;6.60;;;;;;;18.57;32.66;101302.00;5072072;28;20048;-77
2022/03/07 03:55:29;;;;;;;8.25;6.70;;;;;;;18.59;32.36;101307.25;5073959;28;20044;-76
2022/03/07 03:57:56;;;;;;;10.77;6.88;;;;;;;18.58;32.45;101292.97;5073476;28;20044;-76
2022/03/07 04:00:24;;;;;;;8.57;7.05;;;;;;;18.59;32.44;101297.38;5072460;28;20076;-76
2022/03/07 04:02:51;;;;;;;8.00;6.65;;;;;;;18.60;32.32;101301.78;5073299;28;20067;-76
2022/03/07 04:05:19;;;;;;;7.68;6.63;;;;;;;18.61;32.30;101300.81;5073405;28;20048;-76
2022/03/07 04:07:47;;;;;;;11.05;7.50;;;;;;;18.61;32.37;101297.28;5073268;28;20045;-76
2022/03/07 04:10:14;;;;;;;7.40;6.60;;;;;;;18.61;32.43;101292.75;5073768;28;20404;-76
2022/03/07 04:12:43;;;;;;;8.95;7.00;;;;;;;18.62;32.35;101293.63;5073087;28;20048;-76
2022/03/07 04:15:11;;;;;;;8.20;6.72;;;;;;;18.62;32.39;101297.16;5073117;28;20044;-76
2022/03/07 04:17:40;;;;;;;8.18;6.25;;;;;;;18.62;32.31;101291.78;5072162;28;20044;-76
2022/03/07 04:20:09;;;;;;;8.10;6.60;;;;;;;18.63;32.23;101298.00;5073026;28;20048;-76
2022/03/07 04:22:37;;;;;;;7.20;6.45;;;;;;;18.62;32.25;101302.50;5072112;28;20053;-76
2022/03/07 04:25:06;;;;;;;7.18;6.47;;;;;;;18.63;32.23;101292.63;5073605;28;20045;-76
2022/03/07 04:27:34;;;;;;;7.30;6.22;;;;;;;18.62;32.44;101301.66;5073225;28;20051;-76
2022/03/07 04:30:05;;;;;;;9.90;7.32;;;;;;;18.61;32.39;101297.28;5073460;28;20048;-76
2022/03/07 04:32:36;;;;;;;7.85;6.95;;;;;;;18.60;32.21;101304.47;5073454;28;20049;-76
2022/03/07 04:35:06;;;;;;;6.97;6.22;;;;;;;18.59;32.29;101300.03;5073194;28;20049;-76
2022/03/07 04:37:34;;;;;;;8.05;6.47;;;;;;;18.60;32.20;101292.88;5073416;28;20048;-76
2022/03/07 04:40:04;;;;;;;7.90;6.63;;;;;;;18.59;32.34;101302.72;5073546;28;20052;-76
2022/03/07 04:42:31;;;;;;;8.23;7.05;;;;;;;18.60;32.42;101300.94;5073145;28;20045;-76
2022/03/07 04:44:58;;;;;;;7.32;6.18;;;;;;;18.58;32.38;101306.38;5071742;28;20067;-76
2022/03/07 04:47:26;;;;;;;7.60;6.30;;;;;;;18.59;32.50;101305.41;5073304;28;20052;-76
2022/03/07 04:49:53;;;;;;;7.43;6.63;;;;;;;18.58;32.47;101300.19;5056605;28;20131;-76
2022/03/07 04:52:20;;;;;;;8.13;7.13;;;;;;;18.57;32.48;101307.38;5075804;28;20047;-76
2022/03/07 04:54:48;;;;;;;7.43;5.85;;;;;;;18.57;32.50;101314.56;5076759;28;20420;-76
2022/03/07 04:57:15;;;;;;;7.25;6.38;;;;;;;18.56;32.48;101313.72;5076840;28;20048;-76
2022/03/07 04:59:45;;;;;;;6.90;6.20;;;;;;;18.54;32.53;101311.13;5077484;28;20047;-76
2022/03/07 05:02:13;;;;;;;6.70;5.70;;;;;;;18.54;32.57;101312.97;5076528;28;20040;-76
2022/03/07 05:04:41;;;;;;;7.78;6.20;;;;;;;18.53;32.50;101309.41;5077362;28;20055;-76
2022/03/07 05:07:09;;;;;;;7.25;6.43;;;;;;;18.52;32.64;101317.59;5076961;28;20384;-76
2022/03/07 05:09:36;;;;;;;7.13;6.43;;;;;;;18.51;32.53;101321.22;5075913;28;20045;-76
2022/03/07 05:12:04;;;;;;;7.55;6.43;;;;;;;18.53;32.20;101327.34;5076539;28;20044;-76
2022/03/07 05:14:31;;;;;;;6.65;5.95;;;;;;;18.54;32.25;101326.38;5076913;28;20051;-76
2022/03/07 05:16:58;;;;;;;8.18;6.20;;;;;;;18.55;32.05;101325.38;5077068;28;20052;-76
2022/03/07 05:19:26;;;;;;;7.57;6.03;;;;;;;18.56;32.09;101335.16;5075542;28;20377;-76
2022/03/07 05:21:53;;;;;;;6.30;5.68;;;;;;;18.57;32.10;101328.81;5076210;28;20197;-76
2022/03/07 05:24:20;;;;;;;7.35;5.80;;;;;;;18.57;32.23;101326.13;5076453;28;20377;-76
2022/03/07 05:26:48;;;;;;;7.10;6.40;;;;;;;18.58;32.07;101332.34;5075269;28;20052;-76
2022/03/07 05:29:15;;;;;;;7.95;6.63;;;;;;;18.57;32.04;101326.13;5075144;28;20047;-76
2022/03/07 05:31:42;;;;;;;7.68;6.13;;;;;;;18.57;32.00;101331.50;5076399;28;20044;-76
2022/03/07 05:34:10;;;;;;;7.10;6.40;;;;;;;18.58;31.95;101325.16;5076879;28;20056;-76
2022/03/07 05:36:38;;;;;;;7.05;6.05;;;;;;;18.58;31.95;101324.31;5075982;28;20370;-76
2022/03/07 05:39:05;;;;;;;7.10;6.18;;;;;;;18.58;32.00;101333.22;5075975;28;20349;-76
2022/03/07 05:41:32;;;;;;;7.97;6.53;;;;;;;18.56;31.96;101327.13;5075621;28;20044;-76
2022/03/07 05:44:00;;;;;;;8.18;6.60;;;;;;;18.58;32.14;101333.22;5075862;28;20087;-76
2022/03/07 05:46:27;;;;;;;7.20;6.45;;;;;;;18.58;32.13;101333.22;5076585;28;20497;-76
2022/03/07 05:48:55;;;;;;;7.13;6.38;;;;;;;18.57;32.30;101333.34;5075803;28;20036;-76
2022/03/07 05:51:24;;;;;;;7.85;6.15;;;;;;;18.55;32.16;101328.06;5074552;28;20484;-76
2022/03/07 05:53:52;;;;;;;7.47;6.68;;;;;;;18.54;32.18;101335.25;5075288;28;20497;-76
2022/03/07 05:56:19;;;;;;;6.80;5.90;;;;;;;18.55;32.26;101336.09;5074723;28;20044;-76
2022/03/07 05:58:47;;;;;;;9.50;5.85;;;;;;;18.54;32.33;101345.13;5074468;28;20044;-76
2022/03/07 06:01:15;;;;;;;6.93;6.05;;;;;;;18.52;32.57;101342.56;5056947;28;20440;-76
2022/03/07 06:03:42;;;;;;;7.68;6.47;;;;;;;18.51;32.39;101346.22;5073583;28;20048;-76
2022/03/07 06:06:10;;;;;;;7.40;6.68;;;;;;;18.51;32.34;101353.41;5074627;28;20044;-76
2022/03/07 06:08:37;;;;;;;7.10;5.72;;;;;;;18.49;32.64;101349.97;5074445;28;20055;-76
2022/03/07 06:11:05;;;;;;;7.82;6.43;;;;;;;18.48;32.47;101357.19;5074664;28;20040;-76
2022/03/07 06:13:32;;;;;;;7.03;6.15;;;;;;;18.48;32.52;101353.66;5075006;28;20055;-76
2022/03/07 06:15:59;;;;;;;6.22;5.63;;;;;;;18.49;32.73;101361.56;5074510;28;20071;-76
2022/03/07 06:18:27;;;;;;;6.75;6.10;;;;;;;18.47;32.37;101358.16;5074890;28;20036;-76
2022/03/07 06:20:55;;;;;;;7.13;5.72;;;;;;;18.48;32.26;101359.84;5074579;28;20064;-76
2022/03/07 06:23:23;;;;;;;8.18;5.97;;;;;;;18.50;32.30;101357.91;5074633;28;20055;-76
2022/03/07 06:25:50;;;;;;;10.07;6.57;;;;;;;18.51;32.26;101365.00;5074201;28;20040;-76
2022/03/07 06:28:18;;;;;;;7.10;6.18;;;;;;;18.51;32.09;101367.69;5073969;28;20041;-76
2022/03/07 06:30:49;;;;;;;7.30;5.78;;;;;;;18.53;32.22;101373.78;5074417;28;20579;-77
2022/03/07 06:33:16;;;;;;;7.07;6.05;;;;;;;18.55;32.08;101376.31;5073401;28;20082;-77
2022/03/07 06:35:44;;;;;;;8.23;6.47;;;;;;;18.56;31.97;101378.06;5073320;28;20055;-77
2022/03/07 06:38:12;;;;;;;6.72;6.03;;;;;;;18.54;32.06;101378.16;5073697;28;20055;-77
2022/03/07 06:40:39;;;;;;;6.88;6.18;;;;;;;18.55;32.08;101379.00;5074103;28;20052;-77
2022/03/07 06:43:06;;;;;;;7.22;5.50;;;;;;;18.57;32.06;101376.22;5073659;28;20051;-76
2022/03/07 06:45:34;;;;;;;6.53;5.82;;;;;;;18.54;32.10;101375.47;5073984;28;20051;-76
2022/03/07 06:48:01;;;;;;;8.02;6.43;;;;;;;18.56;31.98;101386.09;5073733;28;20075;-76
2022/03/07 06:50:29;;;;;;;7.95;6.18;;;;;;;18.55;32.27;101384.38;5056281;28;20048;-76
2022/03/07 06:52:58;;;;;;;7.05;6.20;;;;;;;18.55;32.05;101392.41;5033026;28;1151862;-77
2022/03/07 06:55:26;;;;;;;7.82;7.03;;;;;;;18.56;32.03;101395.97;5075039;28;20051;-76
2022/03/07 06:57:53;;;;;;;9.10;6.43;;;;;;;18.54;31.98;101399.59;5073354;28;20093;-76
2022/03/07 07:00:21;;;;;;;7.32;6.00;;;;;;;18.54;32.05;101406.81;5075188;28;20376;-76
2022/03/07 07:02:48;;;;;;;6.97;5.95;;;;;;;18.53;32.24;101411.31;5074583;28;20113;-76
2022/03/07 07:05:16;;;;;;;7.15;6.40;;;;;;;18.53;32.16;101408.63;5074270;28;20041;-76
2022/03/07 07:07:44;;;;;;;7.53;6.20;;;;;;;18.52;32.11;101412.28;5074131;28;20044;-76
2022/03/07 07:10:15;;;;;;;7.90;6.45;;;;;;;18.51;32.20;101410.59;5072750;28;20056;-76
2022/03/07 07:12:42;;;;;;;6.97;5.78;;;;;;;18.51;32.28;101415.94;5074122;28;20503;-76
2022/03/07 07:15:10;;;;;;;6.85;5.90;;;;;;;18.52;32.19;101420.34;5074659;28;20369;-75
2022/03/07 07:17:38;;;;;;;6.82;6.15;;;;;;;18.51;32.32;101421.31;5074588;28;20045;-76
2022/03/07 07:20:07;;;;;;;7.65;5.88;;;;;;;18.51;32.17;101415.94;5073083;28;20044;-76
2022/03/07 07:22:34;;;;;;;7.43;6.63;;;;;;;18.52;32.18;101422.16;5073893;28;20044;-75
2022/03/07 07:25:03;;;;;;;7.43;5.57;;;;;;;18.51;32.09;101415.06;5074257;28;20048;-76
2022/03/07 07:27:31;;;;;;;6.65;5.40;;;;;;;18.50;32.19;101426.75;5073951;28;20045;-76
2022/03/07 07:29:58;;;;;;;8.68;6.63;;;;;;;18.51;32.13;101433.81;5073130;28;20044;-76
2022/03/07 07:32:26;;;;;;;7.15;6.22;;;;;;;18.50;32.23;101429.44;5072598;28;20044;-76
2022/03/07 07:34:53;;;;;;;7.00;6.30;;;;;;;18.50;32.17;101432.97;5074241;28;20045;-76
2022/03/07 07:37:20;;;;;;;7.43;6.32;;;;;;;18.49;32.19;101428.59;5073232;28;20044;-75
2022/03/07 07:39:48;;;;;;;8.23;6.50;;;;;;;18.49;32.34;101431.28;5074167;28;20045;-76
2022/03/07 07:42:15;;;;;;;7.57;5.93;;;;;;;18.48;32.29;101429.56;5072383;28;20044;-75
2022/03/07 07:44:43;;;;;;;8.60;6.50;;;;;;;18.47;32.62;101440.38;5073232;28;20048;-75
2022/03/07 07:47:10;;;;;;;7.90;6.30;;;;;;;18.46;32.92;101441.34;5073914;28;20040;-75
2022/03/07 07:49:38;;;;;;;9.02;6.68;;;;;;;18.45;32.68;101447.69;5072668;28;20049;-75
2022/03/07 07:52:06;;;;;;;6.38;5.65;;;;;;;18.44;33.24;101433.44;5072626;28;20044;-78
2022/03/07 07:54:33;;;;;;;9.43;6.45;;;;;;;18.45;33.33;101447.69;5073273;28;20059;-79
2022/03/07 07:57:03;;;;;;;8.77;6.35;;;;;;;18.43;33.60;101449.63;5072819;28;20500;-81
2022/03/07 07:59:31;;;;;;;10.20;6.55;;;;;;;18.42;33.35;101450.59;5073913;28;20472;-81
2022/03/07 08:01:59;;;;;;;9.55;7.40;;;;;;;18.39;33.34;101446.34;5072188;28;20052;-79
2022/03/07 08:04:26;;;;;;;9.18;6.88;;;;;;;18.37;32.95;101456.28;5073777;28;20063;-78
2022/03/07 08:06:53;;;;;;;8.27;6.93;;;;;;;18.36;32.50;101449.22;5073221;28;20052;-79
2022/03/07 08:09:21;;;;;;;8.38;6.90;;;;;;;18.35;32.36;101449.31;5073190;28;20041;-79
2022/03/07 08:11:48;;;;;;;10.73;6.85;;;;;;;18.33;31.99;101452.13;5073794;28;20048;-79
2022/03/07 08:14:15;;;;;;;10.07;7.80;;;;;;;18.34;32.43;101455.66;5073081;28;20400;-79
2022/03/07 08:16:43;;;;;;;12.38;7.50;;;;;;;18.32;32.79;101450.41;5072515;28;20522;-79
2022/03/07 08:19:10;;;;;;;11.15;8.07;;;;;;;18.32;32.68;101449.56;5073052;28;20044;-79
2022/03/07 08:21:38;;;;;;;13.50;8.63;;;;;;;18.31;32.63;101455.88;5073374;28;20052;-79
2022/03/07 08:24:05;;;;;;;9.93;8.32;;;;;;;18.30;32.64;101452.31;5072782;28;20044;-79
2022/03/07 08:26:33;;;;;;;11.70;9.13;;;;;;;18.29;32.60;101451.47;5073136;28;20052;-79
2022/03/07 08:29:00;;;;;;;14.95;9.02;;;;;;;18.28;32.42;101447.09;5071762;28;20056;-79
2022/03/07 08:31:27;;;;;;;11.30;8.25;;;;;;;18.29;32.12;101453.31;5073593;28;20404;-79
2022/03/07 08:33:55;;;;;;;13.43;8.73;;;;;;;18.28;32.17;101449.78;5073179;28;20044;-79
2022/03/07 08:36:22;;;;;;;9.40;7.90;;;;;;;18.28;32.17;101447.09;5071897;28;20067;-79
2022/03/07 08:38:49;;;;;;;9.05;8.15;;;;;;;18.28;32.16;101447.09;5073479;28;20044;-79
2022/03/07 08:41:17;;;;;;;10.07;8.75;;;;;;;18.28;31.85;101444.41;5073029;28;20060;-79
2022/03/07 08:43:45;;;;;;;10.40;8.73;;;;;;;18.29;31.86;101442.59;5072953;28;20497;-79
2022/03/07 08:46:12;;;;;;;10.80;8.55;;;;;;;18.29;31.92;101445.25;5071861;28;20420;-79
2022/03/07 08:48:40;;;;;;;11.48;8.85;;;;;;;18.29;31.95;101447.94;5073235;28;20045;-79
2022/03/07 08:51:07;;;;;;;12.35;8.90;;;;;;;18.29;31.74;101445.25;5072108;28;20044;-79
2022/03/07 08:53:35;;;;;;;11.15;8.80;;;;;;;18.29;31.68;101446.13;5073033;28;20048;-79
2022/03/07 08:56:03;;;;;;;13.30;9.25;;;;;;;18.29;31.64;101442.59;5073594;28;20049;-80
2022/03/07 08:58:50;;;;;;;12.35;8.57;;;;;;;18.30;31.68;101446.97;5073348;28;20047;-80
2022/03/07 09:01:20;;;;;;;11.13;9.02;;;;;;;18.28;31.54;101438.19;5071504;28;20048;-79
2022/03/07 09:03:47;;;;;;;11.27;8.13;;;;;;;18.28;31.51;101449.78;5072122;28;20373;-79
2022/03/07 09:06:15;;;;;;;12.02;9.43;;;;;;;18.28;31.16;101447.09;5073381;28;20056;-79
2022/03/07 09:08:43;;;;;;;9.23;8.32;;;;;;;18.29;31.51;101448.78;5071692;28;20048;-79
2022/03/07 09:11:10;;;;;;;11.82;8.98;;;;;;;18.31;31.25;101453.19;5072665;28;20041;-80
2022/03/07 09:13:37;;;;;;;12.52;8.63;;;;;;;18.29;31.39;101443.44;5072847;28;20048;-78
2022/03/07 09:16:05;;;;;;;12.38;8.90;;;;;;;18.29;31.22;101442.59;5073113;28;20048;-79
2022/03/07 09:18:32;;;;;;;9.90;7.95;;;;;;;18.31;31.33;101454.06;5072455;28;20052;-80
2022/03/07 09:21:00;;;;;;;10.98;8.45;;;;;;;18.31;31.09;101451.38;5072457;28;20485;-79
2022/03/07 09:23:33;;;;;;;10.65;8.35;;;;;;;18.33;30.76;101456.63;5072558;28;20044;-78
2022/03/07 09:26:00;;;;;;;12.73;10.90;;;;;;;18.36;29.16;101451.06;5072552;28;20503;-78
2022/03/07 09:28:27;;;;;;;11.18;8.88;;;;;;;18.35;30.50;101452.00;5072337;28;20048;-78
2022/03/07 09:30:55;;;;;;;12.48;9.80;;;;;;;18.34;30.12;101450.28;5072390;28;20049;-78
2022/03/07 09:33:24;;;;;;;10.25;9.13;;;;;;;18.33;29.79;101451.25;5072075;28;20124;-78
2022/03/07 09:35:51;;;;;;;12.13;10.18;;;;;;;18.34;28.66;101451.13;5055822;28;20052;-78
2022/03/07 09:38:19;;;;;;;13.95;10.27;;;;;;;18.32;29.50;101445.06;5076047;28;20404;-78
2022/03/07 09:40:46;;;;;;;12.27;9.63;;;;;;;18.31;29.49;101448.72;5075893;28;20055;-78
2022/03/07 09:43:15;;;;;;;15.07;11.35;;;;;;;18.32;28.57;101449.56;5074826;28;20080;-78
2022/03/07 09:45:43;;;;;;;10.57;9.48;;;;;;;18.30;29.58;101446.97;5075966;28;20048;-78
2022/03/07 09:48:14;;;;;;;12.18;9.75;;;;;;;18.27;29.53;101445.38;5075728;28;20036;-78
2022/03/07 09:50:43;;;;;;;15.02;9.93;;;;;;;18.27;29.64;101449.84;5074905;28;20056;-79
2022/03/07 09:53:13;;;;;;;12.05;9.27;;;;;;;18.27;30.27;101450.75;5075730;28;20048;-78
2022/03/07 09:55:40;;;;;;;14.88;9.68;;;;;;;18.28;30.54;101459.63;5075998;28;20052;-78
2022/03/07 09:58:08;;;;;;;11.27;9.55;;;;;;;18.27;30.31;101452.53;5075844;28;20059;-78
2022/03/07 10:00:40;;;;;;;10.77;9.68;;;;;;;18.26;30.79;101453.50;5076013;28;20051;-77
2022/03/07 10:03:11;;;;;;;10.97;8.87;;;;;;;18.25;30.79;101452.66;5075891;28;20404;-78
2022/03/07 10:05:44;;;;;;;12.55;8.93;;;;;;;18.26;30.92;101462.41;5057783;28;20048;-78
2022/03/07 10:08:20;;;;;;;;;;;;;;;18.26;30.97;101465.09;5076605;28;20385;-79
2022/03/07 10:10:51;;;;;;;10.98;8.98;;;;;;;18.27;31.15;101458.78;5074574;28;19928;-79
2022/03/07 10:13:20;;;;;;;10.65;8.15;;;;;;;18.29;31.48;101464.88;5076237;28;20404;-78
2022/03/07 10:16:03;;;;;;;8.88;7.63;;;;;;;18.30;31.48;101468.41;5076691;28;20047;-78
2022/03/07 10:18:30;;;;;;;8.75;7.50;;;;;;;18.32;31.61;101465.63;5075533;28;20056;-78
2022/03/07 10:21:01;;;;;;;10.82;8.02;;;;;;;18.32;31.87;101468.31;5075264;28;20060;-78
2022/03/07 10:23:29;;;;;;;9.88;8.10;;;;;;;18.32;31.96;101452.25;5075476;28;20067;-78
2022/03/07 10:26:07;;;;;;;10.02;7.78;;;;;;;18.32;32.23;101453.09;5074239;28;20056;-78
2022/03/07 10:28:41;;;;;;;10.00;7.50;;;;;;;18.33;32.11;101453.94;5075481;28;20044;-78
2022/03/07 10:31:16;;;;;;;8.25;7.00;;;;;;;18.33;32.12;101451.25;5074960;28;20044;-79
2022/03/07 10:33:45;;;;;;;10.23;8.43;;;;;;;18.33;32.20;101456.63;5075088;28;20033;-78
2022/03/07 10:36:13;;;;;;;12.02;7.75;;;;;;;18.34;32.54;101455.66;5075102;28;20044;-79
2022/03/07 10:38:43;;;;;;;8.18;7.40;;;;;;;18.34;32.14;101453.81;5075252;28;20044;-78
2022/03/07 10:41:10;;;;;;;8.90;8.00;;;;;;;18.35;32.19;101444.84;5075340;28;20041;-78
2022/03/07 10:43:48;;;;;;;11.80;8.15;;;;;;;18.36;32.33;101445.69;5074998;28;20048;-78
2022/03/07 10:46:25;;;;;;;10.52;7.38;;;;;;;18.36;32.19;101440.31;5074987;28;20055;-78
2022/03/07 10:48:53;;;;;;;10.38;7.88;;;;;;;18.36;32.24;101441.19;5074533;28;20045;-78
2022/03/07 10:51:21;;;;;;;9.00;8.10;;;;;;;18.36;32.43;101441.19;5073512;28;20048;-79
2022/03/07 10:53:49;;;;;;;11.20;8.25;;;;;;;18.37;32.26;101439.34;5075016;28;20048;-78
2022/03/07 10:56:17;;;;;;;11.52;7.50;;;;;;;18.38;32.48;101441.06;5074422;28;20044;-78
2022/03/07 10:58:53;;;;;;;9.40;7.80;;;;;;;18.38;32.35;101433.88;5074203;28;20048;-78
2022/03/07 11:01:28;;;;;;;9.93;7.45;;;;;;;18.39;32.29;101432.94;5073330;28;20519;-78
2022/03/07 11:03:56;;;;;;;8.85;7.50;;;;;;;18.40;32.55;101428.41;5074153;28;20043;-79
2022/03/07 11:06:26;;;;;;;9.80;7.40;;;;;;;18.39;32.48;101430.25;5074500;28;20048;-78
2022/03/07 11:08:55;;;;;;;8.93;6.88;;;;;;;18.40;32.51;101425.75;5074177;28;20051;-78
2022/03/07 11:11:22;;;;;;;9.70;6.88;;;;;;;18.39;32.31;101424.88;5074264;28;20055;-78
2022/03/07 11:13:54;;;;;;;8.77;6.70;;;;;;;18.40;32.39;101409.66;5074115;28;20048;-78
2022/03/07 11:16:22;;;;;;;9.88;7.95;;;;;;;18.40;32.26;101415.00;5072908;28;20060;-78
2022/03/07 11:18:54;;;;;;;7.45;6.50;;;;;;;18.40;32.36;101404.28;5074869;28;20049;-78
2022/03/07 11:21:30;;;;;;;8.05;6.85;;;;;;;18.40;32.29;101401.59;5074434;28;20515;-79
2022/03/07 11:23:57;;;;;;;8.45;7.55;;;;;;;18.41;32.33;101395.28;5074046;28;20115;-77
2022/03/07 11:26:26;;;;;;;11.35;7.72;;;;;;;18.44;32.26;101392.38;5074190;28;20448;-79
2022/03/07 11:28:57;;;;;;;9.25;6.95;;;;;;;18.45;32.65;101391.41;5072610;28;20053;-78